sensor_id;sensor_type;location;lat;lon;timestamp;pressure;altitude;pressure_sealevel;temperature;humidity
15487;BME280;7845;53.698;10.078;2023-07-31T00:00:10;100170.16;;;19.85;100.00
15487;BME280;7845;53.698;10.078;2023-07-31T00:02:37;100162.13;;;19.86;100.00
15487;BME280;7845;53.698;10.078;2023-07-31T00:05:02;100163.59;;;19.92;100.00
15487;BME280;7845;53.698;10.078;2023-07-31T00:07:28;100159.81;;;19.96;100.00
15487;BME280;7845;53.698;10.078;2023-07-31T00:09:53;100164.25;;;19.96;100.00
15487;BME280;7845;53.698;10.078;2023-07-31T00:12:20;100156.66;;;20.05;100.00
15487;BME280;7845;53.698;10.078;2023-07-31T00:14:45;100152.09;;;20.07;100.00
15487;BME280;7845;53.698;10.078;2023-07-31T00:17:11;100153.50;;;19.99;100.00
15487;BME280;7845;53.698;10.078;2023-07-31T00:19:36;100155.09;;;20.01;100.00
15487;BME280;7845;53.698;10.078;2023-07-31T00:22:02;100148.97;;;20.01;100.00
15487;BME280;7845;53.698;10.078;2023-07-31T00:24:27;100144.69;;;19.98;100.00
15487;BME280;7845;53.698;10.078;2023-07-31T00:26:55;100153.41;;;20.00;100.00
15487;BME280;7845;53.698;10.078;2023-07-31T00:29:24;100149.22;;;19.96;100.00
15487;BME280;7845;53.698;10.078;2023-07-31T00:31:50;100141.03;;;20.01;100.00
15487;BME280;7845;53.698;10.078;2023-07-31T00:34:15;100142.66;;;20.03;100.00
15487;BME280;7845;53.698;10.078;2023-07-31T00:36:40;100142.66;;;20.03;100.00
15487;BME280;7845;53.698;10.078;2023-07-31T00:39:06;100138.03;;;20.07;100.00
15487;BME280;7845;53.698;10.078;2023-07-31T00:41:31;100138.63;;;20.12;100.00
15487;BME280;7845;53.698;10.078;2023-07-31T00:43:59;100135.78;;;20.15;100.00
15487;BME280;7845;53.698;10.078;2023-07-31T00:46:25;100135.63;;;20.18;100.00
15487;BME280;7845;53.698;10.078;2023-07-31T00:48:51;100138.25;;;20.18;100.00
15487;BME280;7845;53.698;10.078;2023-07-31T00:51:18;100132.22;;;20.16;100.00
15487;BME280;7845;53.698;10.078;2023-07-31T00:53:43;100144.44;;;20.18;100.00
15487;BME280;7845;53.698;10.078;2023-07-31T00:56:10;100131.25;;;20.17;100.00
15487;BME280;7845;53.698;10.078;2023-07-31T00:58:37;100132.88;;;20.19;100.00
15487;BME280;7845;53.698;10.078;2023-07-31T01:01:02;100132.38;;;20.13;100.00
15487;BME280;7845;53.698;10.078;2023-07-31T01:03:28;100129.28;;;20.05;100.00
15487;BME280;7845;53.698;10.078;2023-07-31T01:06:05;100123.84;;;19.92;100.00
15487;BME280;7845;53.698;10.078;2023-07-31T01:08:51;100117.38;;;19.82;100.00
15487;BME280;7845;53.698;10.078;2023-07-31T01:11:23;100117.53;;;19.79;100.00
15487;BME280;7845;53.698;10.078;2023-07-31T01:13:51;100118.38;;;19.79;100.00
15487;BME280;7845;53.698;10.078;2023-07-31T01:16:16;100120.41;;;19.74;100.00
15487;BME280;7845;53.698;10.078;2023-07-31T01:18:41;100112.66;;;19.71;100.00
15487;BME280;7845;53.698;10.078;2023-07-31T01:21:21;100117.19;;;19.69;100.00
15487;BME280;7845;53.698;10.078;2023-07-31T01:27:04;100107.44;;;19.54;100.00
15487;BME280;7845;53.698;10.078;2023-07-31T01:29:47;100110.19;;;19.53;100.00
15487;BME280;7845;53.698;10.078;2023-07-31T01:32:14;100113.69;;;19.53;100.00
15487;BME280;7845;53.698;10.078;2023-07-31T01:34:41;100112.72;;;19.54;100.00
15487;BME280;7845;53.698;10.078;2023-07-31T01:37:07;100108.31;;;19.55;100.00
15487;BME280;7845;53.698;10.078;2023-07-31T01:39:32;100110.09;;;19.54;100.00
15487;BME280;7845;53.698;10.078;2023-07-31T01:41:57;100108.19;;;19.56;100.00
15487;BME280;7845;53.698;10.078;2023-07-31T01:44:23;100108.56;;;19.50;100.00
15487;BME280;7845;53.698;10.078;2023-07-31T01:46:48;100104.25;;;19.48;100.00
15487;BME280;7845;53.698;10.078;2023-07-31T01:49:13;100093.78;;;19.46;100.00
15487;BME280;7845;53.698;10.078;2023-07-31T01:51:39;100094.53;;;19.48;100.00
15487;BME280;7845;53.698;10.078;2023-07-31T01:54:04;100091.03;;;19.48;100.00
15487;BME280;7845;53.698;10.078;2023-07-31T01:56:30;100086.69;;;19.47;100.00
15487;BME280;7845;53.698;10.078;2023-07-31T01:58:56;100082.91;;;19.51;100.00
15487;BME280;7845;53.698;10.078;2023-07-31T02:01:21;100079.94;;;19.57;100.00
15487;BME280;7845;53.698;10.078;2023-07-31T02:03:46;100074.16;;;19.50;100.00
15487;BME280;7845;53.698;10.078;2023-07-31T02:06:12;100072.84;;;19.57;100.00
15487;BME280;7845;53.698;10.078;2023-07-31T02:08:37;100069.97;;;19.62;100.00
15487;BME280;7845;53.698;10.078;2023-07-31T02:11:03;100070.63;;;19.65;100.00
15487;BME280;7845;53.698;10.078;2023-07-31T02:13:28;100070.09;;;19.74;100.00
15487;BME280;7845;53.698;10.078;2023-07-31T02:15:54;100072.50;;;19.63;100.00
15487;BME280;7845;53.698;10.078;2023-07-31T02:18:19;100068.25;;;19.61;100.00
15487;BME280;7845;53.698;10.078;2023-07-31T02:20:49;100072.84;;;19.57;100.00
15487;BME280;7845;53.698;10.078;2023-07-31T02:23:14;100066.53;;;19.60;100.00
15487;BME280;7845;53.698;10.078;2023-07-31T02:25:40;100055.41;;;19.69;100.00
15487;BME280;7845;53.698;10.078;2023-07-31T02:28:05;100059.25;;;19.63;100.00
15487;BME280;7845;53.698;10.078;2023-07-31T02:30:30;100058.84;;;19.71;100.00
15487;BME280;7845;53.698;10.078;2023-07-31T02:32:56;100060.47;;;19.73;100.00
15487;BME280;7845;53.698;10.078;2023-07-31T02:35:21;100056.44;;;19.66;100.00
15487;BME280;7845;53.698;10.078;2023-07-31T02:37:46;100053.56;;;19.71;100.00
15487;BME280;7845;53.698;10.078;2023-07-31T02:40:12;100055.34;;;19.70;100.00
15487;BME280;7845;53.698;10.078;2023-07-31T02:42:37;100052.06;;;19.65;100.00
15487;BME280;7845;53.698;10.078;2023-07-31T02:45:03;100043.22;;;19.66;100.00
15487;BME280;7845;53.698;10.078;2023-07-31T02:47:28;100052.06;;;19.65;100.00
15487;BME280;7845;53.698;10.078;2023-07-31T02:49:53;100044.94;;;19.67;100.00
15487;BME280;7845;53.698;10.078;2023-07-31T02:52:19;100042.22;;;19.53;100.00
15487;BME280;7845;53.698;10.078;2023-07-31T02:54:45;100044.47;;;19.59;100.00
15487;BME280;7845;53.698;10.078;2023-07-31T02:57:10;100042.69;;;19.60;100.00
15487;BME280;7845;53.698;10.078;2023-07-31T02:59:35;100035.94;;;19.54;100.00
15487;BME280;7845;53.698;10.078;2023-07-31T03:02:01;100041.84;;;19.59;100.00
15487;BME280;7845;53.698;10.078;2023-07-31T03:04:26;100033.66;;;19.48;100.00
15487;BME280;7845;53.698;10.078;2023-07-31T03:06:51;100032.56;;;19.52;100.00
15487;BME280;7845;53.698;10.078;2023-07-31T03:09:17;100046.78;;;19.65;100.00
15487;BME280;7845;53.698;10.078;2023-07-31T03:11:42;100036.69;;;19.72;100.00
15487;BME280;7845;53.698;10.078;2023-07-31T03:14:08;100037.50;;;19.74;100.00
15487;BME280;7845;53.698;10.078;2023-07-31T03:16:34;100032.84;;;19.77;100.00
15487;BME280;7845;53.698;10.078;2023-07-31T03:18:59;100026.91;;;19.74;100.00
15487;BME280;7845;53.698;10.078;2023-07-31T03:21:25;100024.81;;;19.79;100.00
15487;BME280;7845;53.698;10.078;2023-07-31T03:23:50;100022.72;;;19.70;100.00
15487;BME280;7845;53.698;10.078;2023-07-31T03:26:15;100023.63;;;19.69;100.00
15487;BME280;7845;53.698;10.078;2023-07-31T03:28:41;100018.34;;;19.69;100.00
15487;BME280;7845;53.698;10.078;2023-07-31T03:31:06;100021.59;;;19.74;100.00
15487;BME280;7845;53.698;10.078;2023-07-31T03:33:33;100013.72;;;19.72;100.00
15487;BME280;7845;53.698;10.078;2023-07-31T03:35:58;100020.81;;;19.72;100.00
15487;BME280;7845;53.698;10.078;2023-07-31T03:38:24;100018.28;;;19.70;100.00
15487;BME280;7845;53.698;10.078;2023-07-31T03:40:49;100010.91;;;19.75;100.00
15487;BME280;7845;53.698;10.078;2023-07-31T03:43:15;100013.84;;;19.71;100.00
15487;BME280;7845;53.698;10.078;2023-07-31T03:45:40;100009.34;;;19.71;100.00
15487;BME280;7845;53.698;10.078;2023-07-31T03:48:06;100009.28;;;19.73;100.00
15487;BME280;7845;53.698;10.078;2023-07-31T03:50:32;100011.00;;;19.74;100.00
15487;BME280;7845;53.698;10.078;2023-07-31T03:52:58;100015.78;;;19.83;100.00
15487;BME280;7845;53.698;10.078;2023-07-31T03:55:23;100010.88;;;19.91;100.00
15487;BME280;7845;53.698;10.078;2023-07-31T03:57:48;100012.66;;;19.91;100.00
15487;BME280;7845;53.698;10.078;2023-07-31T04:00:14;100005.41;;;19.94;100.00
15487;BME280;7845;53.698;10.078;2023-07-31T04:02:41;100012.22;;;19.98;100.00
15487;BME280;7845;53.698;10.078;2023-07-31T04:05:07;100004.16;;;19.85;100.00
15487;BME280;7845;53.698;10.078;2023-07-31T04:07:33;100009.66;;;19.97;100.00
15487;BME280;7845;53.698;10.078;2023-07-31T04:09:58;100009.47;;;20.00;100.00
15487;BME280;7845;53.698;10.078;2023-07-31T04:12:23;100004.00;;;20.03;100.00
15487;BME280;7845;53.698;10.078;2023-07-31T04:14:49;100003.63;;;19.95;100.00
15487;BME280;7845;53.698;10.078;2023-07-31T04:17:15;100001.53;;;20.00;100.00
15487;BME280;7845;53.698;10.078;2023-07-31T04:19:40;99987.28;;;20.16;100.00
15487;BME280;7845;53.698;10.078;2023-07-31T04:22:05;99989.09;;;20.16;100.00
15487;BME280;7845;53.698;10.078;2023-07-31T04:24:30;99987.72;;;19.95;100.00
15487;BME280;7845;53.698;10.078;2023-07-31T04:26:56;99983.31;;;20.09;100.00
15487;BME280;7845;53.698;10.078;2023-07-31T04:29:21;99990.75;;;20.03;100.00
15487;BME280;7845;53.698;10.078;2023-07-31T04:31:50;99991.63;;;20.03;100.00
15487;BME280;7845;53.698;10.078;2023-07-31T04:34:17;99982.63;;;20.06;100.00
15487;BME280;7845;53.698;10.078;2023-07-31T04:36:44;99985.63;;;20.00;100.00
15487;BME280;7845;53.698;10.078;2023-07-31T04:39:11;99980.06;;;20.04;100.00
15487;BME280;7845;53.698;10.078;2023-07-31T04:41:56;99979.50;;;20.13;100.00
15487;BME280;7845;53.698;10.078;2023-07-31T04:44:28;99984.56;;;20.18;100.00
15487;BME280;7845;53.698;10.078;2023-07-31T04:46:55;99984.91;;;20.27;100.00
15487;BME280;7845;53.698;10.078;2023-07-31T04:49:22;99980.09;;;20.18;100.00
15487;BME280;7845;53.698;10.078;2023-07-31T04:52:00;99983.09;;;20.28;100.00
15487;BME280;7845;53.698;10.078;2023-07-31T04:54:30;99978.53;;;20.30;100.00
15487;BME280;7845;53.698;10.078;2023-07-31T04:56:56;99982.25;;;20.27;100.00
15487;BME280;7845;53.698;10.078;2023-07-31T04:59:22;99975.16;;;20.28;100.00
15487;BME280;7845;53.698;10.078;2023-07-31T05:01:50;99965.19;;;20.31;100.00
15487;BME280;7845;53.698;10.078;2023-07-31T05:04:16;99972.38;;;20.29;100.00
15487;BME280;7845;53.698;10.078;2023-07-31T05:06:41;99970.31;;;20.34;100.00
15487;BME280;7845;53.698;10.078;2023-07-31T05:09:14;99970.66;;;20.28;100.00
15487;BME280;7845;53.698;10.078;2023-07-31T05:11:40;99982.81;;;20.32;100.00
15487;BME280;7845;53.698;10.078;2023-07-31T05:14:08;99972.88;;;20.36;100.00
15487;BME280;7845;53.698;10.078;2023-07-31T05:16:35;99984.97;;;20.40;100.00
15487;BME280;7845;53.698;10.078;2023-07-31T05:19:00;99974.75;;;20.34;100.00
15487;BME280;7845;53.698;10.078;2023-07-31T05:21:43;99970.78;;;20.27;100.00
15487;BME280;7845;53.698;10.078;2023-07-31T05:24:13;99977.09;;;20.24;100.00
15487;BME280;7845;53.698;10.078;2023-07-31T05:26:49;99970.59;;;20.30;100.00
15487;BME280;7845;53.698;10.078;2023-07-31T05:29:33;99966.03;;;20.32;100.00
15487;BME280;7845;53.698;10.078;2023-07-31T05:32:00;99971.34;;;20.32;100.00
15487;BME280;7845;53.698;10.078;2023-07-31T05:34:25;99962.13;;;20.23;100.00
15487;BME280;7845;53.698;10.078;2023-07-31T05:36:51;99964.31;;;20.31;100.00
15487;BME280;7845;53.698;10.078;2023-07-31T05:39:17;99966.22;;;20.43;100.00
15487;BME280;7845;53.698;10.078;2023-07-31T05:41:54;99957.16;;;20.47;100.00
15487;BME280;7845;53.698;10.078;2023-07-31T05:44:29;99954.31;;;20.50;100.00
15487;BME280;7845;53.698;10.078;2023-07-31T05:47:09;99954.25;;;20.52;100.00
15487;BME280;7845;53.698;10.078;2023-07-31T05:49:37;99951.97;;;20.60;100.00
15487;BME280;7845;53.698;10.078;2023-07-31T05:52:04;99939.94;;;20.54;100.00
15487;BME280;7845;53.698;10.078;2023-07-31T05:54:30;99941.72;;;20.54;100.00
15487;BME280;7845;53.698;10.078;2023-07-31T05:56:55;99942.66;;;20.53;100.00
15487;BME280;7845;53.698;10.078;2023-07-31T05:59:20;99947.59;;;20.59;100.00
15487;BME280;7845;53.698;10.078;2023-07-31T06:01:46;99942.59;;;20.54;100.00
15487;BME280;7845;53.698;10.078;2023-07-31T06:04:11;99940.09;;;20.65;100.00
15487;BME280;7845;53.698;10.078;2023-07-31T06:06:36;99938.00;;;20.70;100.00
15487;BME280;7845;53.698;10.078;2023-07-31T06:09:02;99937.28;;;20.68;100.00
15487;BME280;7845;53.698;10.078;2023-07-31T06:11:28;99936.03;;;20.60;100.00
15487;BME280;7845;53.698;10.078;2023-07-31T06:13:54;99928.94;;;20.74;100.00
15487;BME280;7845;53.698;10.078;2023-07-31T06:16:19;99932.44;;;20.75;100.00
15487;BME280;7845;53.698;10.078;2023-07-31T06:18:46;99932.59;;;20.86;100.00
15487;BME280;7845;53.698;10.078;2023-07-31T06:21:12;99931.47;;;20.76;100.00
15487;BME280;7845;53.698;10.078;2023-07-31T06:23:37;99932.13;;;20.79;100.00
15487;BME280;7845;53.698;10.078;2023-07-31T06:26:02;99938.56;;;20.89;100.00
15487;BME280;7845;53.698;10.078;2023-07-31T06:28:28;99941.31;;;20.88;100.00
15487;BME280;7845;53.698;10.078;2023-07-31T06:30:54;99942.84;;;20.78;100.00
15487;BME280;7845;53.698;10.078;2023-07-31T06:33:20;99949.47;;;20.71;100.00
15487;BME280;7845;53.698;10.078;2023-07-31T06:35:45;99945.88;;;20.86;100.00
15487;BME280;7845;53.698;10.078;2023-07-31T06:38:10;99949.22;;;20.75;100.00
15487;BME280;7845;53.698;10.078;2023-07-31T06:40:36;99948.63;;;20.84;100.00
15487;BME280;7845;53.698;10.078;2023-07-31T06:43:01;99945.13;;;20.56;100.00
15487;BME280;7845;53.698;10.078;2023-07-31T06:45:34;99946.63;;;20.74;100.00
15487;BME280;7845;53.698;10.078;2023-07-31T06:47:59;99932.59;;;20.86;100.00
15487;BME280;7845;53.698;10.078;2023-07-31T06:50:27;99938.59;;;20.75;100.00
15487;BME280;7845;53.698;10.078;2023-07-31T06:52:52;99929.69;;;20.90;100.00
15487;BME280;7845;53.698;10.078;2023-07-31T06:55:19;99936.84;;;21.03;100.00
15487;BME280;7845;53.698;10.078;2023-07-31T06:57:46;99934.38;;;21.14;100.00
15487;BME280;7845;53.698;10.078;2023-07-31T07:00:11;99937.59;;;21.19;100.00
15487;BME280;7845;53.698;10.078;2023-07-31T07:02:37;99944.59;;;21.20;100.00
15487;BME280;7845;53.698;10.078;2023-07-31T07:05:03;99948.59;;;21.13;100.00
15487;BME280;7845;53.698;10.078;2023-07-31T07:07:29;99938.72;;;21.29;100.00
15487;BME280;7845;53.698;10.078;2023-07-31T07:10:13;99934.19;;;21.17;100.00
15487;BME280;7845;53.698;10.078;2023-07-31T07:12:59;99940.91;;;21.22;100.00
15487;BME280;7845;53.698;10.078;2023-07-31T07:15:49;99936.25;;;21.26;100.00
15487;BME280;7845;53.698;10.078;2023-07-31T07:18:35;99931.78;;;21.26;100.00
15487;BME280;7845;53.698;10.078;2023-07-31T07:21:21;99936.94;;;21.15;100.00
15487;BME280;7845;53.698;10.078;2023-07-31T07:24:07;99933.41;;;21.29;100.00
15487;BME280;7845;53.698;10.078;2023-07-31T07:26:52;99934.94;;;21.19;100.00
15487;BME280;7845;53.698;10.078;2023-07-31T07:29:38;99933.66;;;21.38;100.00
15487;BME280;7845;53.698;10.078;2023-07-31T07:32:24;99927.81;;;21.46;100.00
15487;BME280;7845;53.698;10.078;2023-07-31T07:35:11;99921.25;;;21.51;100.00
15487;BME280;7845;53.698;10.078;2023-07-31T07:37:57;99922.00;;;21.53;100.00
15487;BME280;7845;53.698;10.078;2023-07-31T07:40:43;99923.16;;;21.49;100.00
15487;BME280;7845;53.698;10.078;2023-07-31T07:43:29;99923.38;;;21.46;100.00
15487;BME280;7845;53.698;10.078;2023-07-31T07:46:14;99927.16;;;21.42;100.00
15487;BME280;7845;53.698;10.078;2023-07-31T07:49:00;99919.25;;;21.55;100.00
15487;BME280;7845;53.698;10.078;2023-07-31T07:51:47;99919.94;;;21.71;100.00
15487;BME280;7845;53.698;10.078;2023-07-31T07:54:33;99903.34;;;21.68;100.00
15487;BME280;7845;53.698;10.078;2023-07-31T07:57:19;99905.41;;;21.89;100.00
15487;BME280;7845;53.698;10.078;2023-07-31T08:00:05;99908.72;;;21.93;100.00
15487;BME280;7845;53.698;10.078;2023-07-31T08:02:51;99911.72;;;21.88;100.00
15487;BME280;7845;53.698;10.078;2023-07-31T08:05:37;99915.47;;;21.84;100.00
15487;BME280;7845;53.698;10.078;2023-07-31T08:08:23;99907.41;;;21.86;100.00
15487;BME280;7845;53.698;10.078;2023-07-31T08:11:08;99902.47;;;21.94;100.00
15487;BME280;7845;53.698;10.078;2023-07-31T08:13:54;99909.81;;;22.16;100.00
15487;BME280;7845;53.698;10.078;2023-07-31T08:16:40;99910.13;;;22.24;100.00
15487;BME280;7845;53.698;10.078;2023-07-31T08:19:25;99908.97;;;22.28;100.00
15487;BME280;7845;53.698;10.078;2023-07-31T08:22:11;99906.41;;;22.39;100.00
15487;BME280;7845;53.698;10.078;2023-07-31T08:24:56;99900.22;;;22.51;100.00
15487;BME280;7845;53.698;10.078;2023-07-31T08:27:43;99888.63;;;22.65;100.00
15487;BME280;7845;53.698;10.078;2023-07-31T08:30:29;99883.69;;;22.84;100.00
15487;BME280;7845;53.698;10.078;2023-07-31T08:33:15;99881.03;;;23.07;100.00
15487;BME280;7845;53.698;10.078;2023-07-31T08:36:01;99876.91;;;23.03;100.00
15487;BME280;7845;53.698;10.078;2023-07-31T08:38:47;99874.41;;;23.13;100.00
15487;BME280;7845;53.698;10.078;2023-07-31T08:41:39;99884.03;;;23.03;100.00
15487;BME280;7845;53.698;10.078;2023-07-31T08:44:25;99882.13;;;23.29;100.00
15487;BME280;7845;53.698;10.078;2023-07-31T08:47:11;99884.34;;;23.35;100.00
15487;BME280;7845;53.698;10.078;2023-07-31T08:49:58;99886.81;;;23.01;100.00
15487;BME280;7845;53.698;10.078;2023-07-31T08:52:46;99889.13;;;23.06;100.00
15487;BME280;7845;53.698;10.078;2023-07-31T08:55:32;99899.88;;;23.17;100.00
15487;BME280;7845;53.698;10.078;2023-07-31T08:58:18;99895.94;;;23.10;100.00
15487;BME280;7845;53.698;10.078;2023-07-31T09:01:04;99893.19;;;22.75;100.00
15487;BME280;7845;53.698;10.078;2023-07-31T09:03:51;99881.91;;;22.72;100.00
15487;BME280;7845;53.698;10.078;2023-07-31T09:06:39;99879.66;;;22.78;100.00
15487;BME280;7845;53.698;10.078;2023-07-31T09:09:25;99871.28;;;22.95;100.00
15487;BME280;7845;53.698;10.078;2023-07-31T09:12:11;99882.97;;;23.29;100.00
15487;BME280;7845;53.698;10.078;2023-07-31T09:14:58;99877.88;;;23.50;100.00
15487;BME280;7845;53.698;10.078;2023-07-31T09:17:43;99878.38;;;23.55;100.00
15487;BME280;7845;53.698;10.078;2023-07-31T09:20:29;99879.50;;;23.63;100.00
15487;BME280;7845;53.698;10.078;2023-07-31T09:23:15;99883.84;;;23.53;100.00
15487;BME280;7845;53.698;10.078;2023-07-31T09:26:02;99876.09;;;23.50;100.00
15487;BME280;7845;53.698;10.078;2023-07-31T09:28:47;99875.50;;;23.58;100.00
15487;BME280;7845;53.698;10.078;2023-07-31T09:31:41;99871.41;;;23.65;100.00
15487;BME280;7845;53.698;10.078;2023-07-31T09:34:37;99864.63;;;23.72;100.00
15487;BME280;7845;53.698;10.078;2023-07-31T09:37:24;99866.34;;;23.84;100.00
15487;BME280;7845;53.698;10.078;2023-07-31T09:40:24;99864.44;;;23.97;100.00
15487;BME280;7845;53.698;10.078;2023-07-31T09:43:12;99855.59;;;24.08;100.00
15487;BME280;7845;53.698;10.078;2023-07-31T09:45:58;99874.75;;;24.02;100.00
15487;BME280;7845;53.698;10.078;2023-07-31T09:48:43;99857.81;;;24.14;100.00
15487;BME280;7845;53.698;10.078;2023-07-31T09:51:29;99845.69;;;24.32;100.00
15487;BME280;7845;53.698;10.078;2023-07-31T09:54:16;99849.72;;;24.15;100.00
15487;BME280;7845;53.698;10.078;2023-07-31T09:57:02;99840.63;;;24.29;100.00
15487;BME280;7845;53.698;10.078;2023-07-31T09:59:48;99840.75;;;24.39;100.00
15487;BME280;7845;53.698;10.078;2023-07-31T10:02:36;99835.38;;;24.72;100.00
15487;BME280;7845;53.698;10.078;2023-07-31T10:05:22;99852.00;;;24.53;100.00
15487;BME280;7845;53.698;10.078;2023-07-31T10:08:09;99858.19;;;24.32;100.00
15487;BME280;7845;53.698;10.078;2023-07-31T10:10:58;99878.72;;;23.85;100.00
15487;BME280;7845;53.698;10.078;2023-07-31T10:13:44;99873.69;;;23.58;100.00
15487;BME280;7845;53.698;10.078;2023-07-31T10:16:31;99864.09;;;23.56;100.00
15487;BME280;7845;53.698;10.078;2023-07-31T10:19:18;99851.09;;;23.40;100.00
15487;BME280;7845;53.698;10.078;2023-07-31T10:22:05;99842.78;;;23.56;100.00
15487;BME280;7845;53.698;10.078;2023-07-31T10:24:52;99837.75;;;23.40;100.00
15487;BME280;7845;53.698;10.078;2023-07-31T10:27:38;99833.44;;;23.50;100.00
15487;BME280;7845;53.698;10.078;2023-07-31T10:30:27;99835.28;;;23.61;100.00
15487;BME280;7845;53.698;10.078;2023-07-31T10:33:15;99844.75;;;23.65;100.00
15487;BME280;7845;53.698;10.078;2023-07-31T10:36:17;99824.00;;;23.57;100.00
15487;BME280;7845;53.698;10.078;2023-07-31T10:39:04;99820.88;;;23.63;100.00
15487;BME280;7845;53.698;10.078;2023-07-31T10:41:49;99812.66;;;23.78;100.00
15487;BME280;7845;53.698;10.078;2023-07-31T10:44:35;99833.22;;;23.53;100.00
15487;BME280;7845;53.698;10.078;2023-07-31T10:47:21;99821.56;;;23.54;100.00
15487;BME280;7845;53.698;10.078;2023-07-31T10:50:16;99829.41;;;23.45;100.00
15487;BME280;7845;53.698;10.078;2023-07-31T10:53:03;99824.41;;;23.64;100.00
15487;BME280;7845;53.698;10.078;2023-07-31T10:55:49;99830.44;;;23.31;100.00
15487;BME280;7845;53.698;10.078;2023-07-31T10:58:38;99818.47;;;23.37;100.00
15487;BME280;7845;53.698;10.078;2023-07-31T11:02:01;99816.56;;;23.39;100.00
15487;BME280;7845;53.698;10.078;2023-07-31T11:05:05;99819.34;;;23.13;100.00
15487;BME280;7845;53.698;10.078;2023-07-31T11:07:51;99808.63;;;23.26;100.00
15487;BME280;7845;53.698;10.078;2023-07-31T11:10:36;99809.88;;;23.09;100.00
15487;BME280;7845;53.698;10.078;2023-07-31T11:13:22;99806.06;;;22.90;100.00
15487;BME280;7845;53.698;10.078;2023-07-31T11:16:10;99810.75;;;22.86;100.00
15487;BME280;7845;53.698;10.078;2023-07-31T11:18:58;99805.41;;;23.10;100.00
15487;BME280;7845;53.698;10.078;2023-07-31T11:21:43;99788.03;;;23.17;100.00
15487;BME280;7845;53.698;10.078;2023-07-31T11:24:29;99798.78;;;23.15;100.00
15487;BME280;7845;53.698;10.078;2023-07-31T11:27:15;99798.97;;;23.01;100.00
15487;BME280;7845;53.698;10.078;2023-07-31T11:30:01;99810.84;;;22.48;100.00
15487;BME280;7845;53.698;10.078;2023-07-31T11:32:48;99808.63;;;22.42;100.00
15487;BME280;7845;53.698;10.078;2023-07-31T11:35:36;99797.50;;;22.25;100.00
15487;BME280;7845;53.698;10.078;2023-07-31T11:38:25;99802.63;;;22.15;100.00
15487;BME280;7845;53.698;10.078;2023-07-31T11:41:14;99794.31;;;22.20;100.00
15487;BME280;7845;53.698;10.078;2023-07-31T11:44:02;99798.28;;;21.89;100.00
15487;BME280;7845;53.698;10.078;2023-07-31T11:46:48;99778.47;;;22.18;100.00
15487;BME280;7845;53.698;10.078;2023-07-31T11:49:36;99775.00;;;22.41;100.00
15487;BME280;7845;53.698;10.078;2023-07-31T11:52:22;99761.94;;;22.38;100.00
15487;BME280;7845;53.698;10.078;2023-07-31T11:55:09;99776.34;;;22.11;100.00
15487;BME280;7845;53.698;10.078;2023-07-31T11:57:57;99782.09;;;21.79;100.00
15487;BME280;7845;53.698;10.078;2023-07-31T12:00:44;99775.59;;;21.83;100.00
15487;BME280;7845;53.698;10.078;2023-07-31T12:03:31;99776.03;;;22.15;100.00
15487;BME280;7845;53.698;10.078;2023-07-31T12:06:17;99765.97;;;22.31;100.00
15487;BME280;7845;53.698;10.078;2023-07-31T12:09:04;99767.81;;;22.31;100.00
15487;BME280;7845;53.698;10.078;2023-07-31T12:11:50;99773.34;;;22.28;100.00
15487;BME280;7845;53.698;10.078;2023-07-31T12:14:41;99765.00;;;22.81;100.00
15487;BME280;7845;53.698;10.078;2023-07-31T12:17:27;99783.19;;;22.87;100.00
15487;BME280;7845;53.698;10.078;2023-07-31T12:20:13;99777.78;;;22.76;100.00
15487;BME280;7845;53.698;10.078;2023-07-31T12:22:59;99767.06;;;22.89;100.00
15487;BME280;7845;53.698;10.078;2023-07-31T12:25:44;99779.78;;;22.13;100.00
15487;BME280;7845;53.698;10.078;2023-07-31T12:28:30;99770.16;;;22.23;100.00
15487;BME280;7845;53.698;10.078;2023-07-31T12:31:22;99756.69;;;22.13;100.00
15487;BME280;7845;53.698;10.078;2023-07-31T12:34:18;99746.31;;;22.34;100.00
15487;BME280;7845;53.698;10.078;2023-07-31T12:37:06;99744.16;;;22.39;100.00
15487;BME280;7845;53.698;10.078;2023-07-31T12:39:51;99737.13;;;22.38;100.00
15487;BME280;7845;53.698;10.078;2023-07-31T12:42:38;99729.69;;;22.43;100.00
15487;BME280;7845;53.698;10.078;2023-07-31T12:45:24;99727.81;;;22.69;100.00
15487;BME280;7845;53.698;10.078;2023-07-31T12:48:09;99731.84;;;22.61;100.00
15487;BME280;7845;53.698;10.078;2023-07-31T12:50:55;99726.88;;;22.81;100.00
15487;BME280;7845;53.698;10.078;2023-07-31T12:53:41;99725.75;;;22.48;100.00
15487;BME280;7845;53.698;10.078;2023-07-31T12:56:26;99709.59;;;22.63;100.00
15487;BME280;7845;53.698;10.078;2023-07-31T12:59:12;99708.88;;;22.84;100.00
15487;BME280;7845;53.698;10.078;2023-07-31T13:01:58;99708.25;;;22.33;100.00
15487;BME280;7845;53.698;10.078;2023-07-31T13:04:43;99712.41;;;22.85;100.00
15487;BME280;7845;53.698;10.078;2023-07-31T13:07:29;99718.53;;;22.01;100.00
15487;BME280;7845;53.698;10.078;2023-07-31T13:10:15;99711.53;;;22.00;100.00
15487;BME280;7845;53.698;10.078;2023-07-31T13:13:00;99710.88;;;21.97;100.00
15487;BME280;7845;53.698;10.078;2023-07-31T13:15:46;99705.66;;;21.95;100.00
15487;BME280;7845;53.698;10.078;2023-07-31T13:18:32;99702.19;;;21.95;100.00
15487;BME280;7845;53.698;10.078;2023-07-31T13:21:17;99700.03;;;21.75;100.00
15487;BME280;7845;53.698;10.078;2023-07-31T13:24:03;99696.06;;;21.44;100.00
15487;BME280;7845;53.698;10.078;2023-07-31T13:26:50;99698.25;;;21.63;100.00
15487;BME280;7845;53.698;10.078;2023-07-31T13:29:35;99694.66;;;21.64;100.00
15487;BME280;7845;53.698;10.078;2023-07-31T13:32:21;99699.53;;;21.95;100.00
15487;BME280;7845;53.698;10.078;2023-07-31T13:35:08;99692.63;;;22.16;100.00